Chesterland, Ohio
Current Conditions -  °F | °C
As of 8:45 PM on Sunday 21 Dec 2014 (Local Time) from KCGF Reporting Station
Overcast Overcast  
Wind Chill: 26°   Ceiling: 2500
Heat Index: 32°   Visibility: 7mi
Dew Point: 23°   Wind: 7mph
Humidity: 69%   Direction: 150°SSE
Pressure: 30.24"   Gusts: NA
Location:  41.52°N, 81.34°W
Report Text: KCGF 220145Z 15006KT 7SM OVC025 00/M05 A3024
Loading
Personal Weather Stations






























Interactive Weather Map New forecast layout! Learn more

10-Day Weather Forecast

Advertisements
Track Severe Weather on mobile